| time (UTC) | temp F | wind direction | speed knots | gust knots | rain 1hr in | rain 24hr in | rain mn in | humidity % | barometer mb |
| 20260506150513 | 64 | 223 | 2.6 | 3.5 | 0.00 | 0.00 | 0.00 | 75 | 1017.2 |
| 20260506145513 | 65 | 81 | 0.9 | 1.7 | 0.00 | 0.00 | 0.00 | 74 | 1017.1 |
| 20260506144513 | 66 | 339 | 0.0 | 2.6 | 0.00 | 0.00 | 0.00 | 71 | 1017.1 |
| 20260506143508 | 66 | 275 | 5.2 | 6.1 | 0.00 | 0.00 | 0.00 | 70 | 1017.0 |
| 20260506142503 | 66 | 72 | 0.0 | 1.7 | 0.00 | 0.00 | 0.00 | 69 | 1017.1 |
| 20260506141459 | 66 | 262 | 3.5 | 7.0 | 0.00 | 0.00 | 0.00 | 68 | 1017.2 |
| 20260506140454 | 66 | 293 | 0.9 | 3.5 | 0.00 | 0.00 | 0.00 | 68 | 1017.3 |
| 20260506135454 | 66 | 119 | 1.7 | 5.2 | 0.00 | 0.00 | 0.00 | 69 | 1017.4 |
| 20260506134452 | 66 | 182 | 1.7 | 3.5 | 0.00 | 0.00 | 0.00 | 69 | 1017.4 |
| 20260506133451 | 66 | 198 | 4.3 | 7.0 | 0.00 | 0.00 | 0.00 | 69 | 1017.2 |
| 20260506132451 | 66 | 247 | 2.6 | 7.0 | 0.00 | 0.00 | 0.00 | 68 | 1017.2 |
| 20260506131450 | 66 | 180 | 1.7 | 2.6 | 0.00 | 0.00 | 0.00 | 68 | 1016.6 |
| 20260506130450 | 66 | 118 | 1.7 | 7.0 | 0.00 | 0.00 | 0.00 | 69 | 1016.7 |
| 20260506125446 | 66 | 247 | 2.6 | 7.0 | 0.00 | 0.00 | 0.00 | 70 | 1016.8 |
| 20260506124441 | 66 | 109 | 1.7 | 3.5 | 0.00 | 0.00 | 0.00 | 70 | 1016.9 |
| 20260506123436 | 66 | 347 | 0.9 | 2.6 | 0.00 | 0.00 | 0.00 | 71 | 1017.2 |
| 20260506122436 | 66 | 201 | 2.6 | 2.6 | 0.00 | 0.00 | 0.00 | 71 | 1017.0 |
| 20260506121431 | 65 | 240 | 2.6 | 5.2 | 0.00 | 0.00 | 0.00 | 71 | 1017.1 |
| 20260506120432 | 65 | 269 | 0.9 | 5.2 | 0.00 | 0.00 | 0.00 | 71 | 1017.2 |
| 20260506115427 | 65 | 82 | 0.9 | 0.9 | 0.00 | 0.00 | 0.00 | 71 | 1017.4 |
| 20260506114422 | 65 | 180 | 4.3 | 6.1 | 0.00 | 0.00 | 0.00 | 71 | 1017.6 |
| 20260506113418 | 65 | 49 | 0.9 | 1.7 | 0.00 | 0.00 | 0.00 | 72 | 1016.7 |
| 20260506112418 | 65 | 137 | 2.6 | 3.5 | 0.00 | 0.00 | 0.00 | 72 | 1016.8 |
| 20260506111413 | 65 | 60 | 0.0 | 0.9 | 0.00 | 0.00 | 0.00 | 72 | 1017.0 |
| 20260506110408 | 64 | 82 | 0.0 | 0.9 | 0.00 | 0.00 | 0.00 | 72 | 1017.0 |
| 20260506105406 | 64 | 96 | 0.0 | 0.9 | 0.00 | 0.00 | 0.00 | 72 | 1017.0 |
| 20260506104401 | 64 | 91 | 0.0 | 1.7 | 0.00 | 0.00 | 0.00 | 72 | 1017.0 |
| 20260506103356 | 64 | 95 | 0.0 | 3.5 | 0.00 | 0.00 | 0.00 | 71 | 1017.1 |
| 20260506102351 | 64 | 76 | 0.0 | 1.7 | 0.00 | 0.00 | 0.00 | 71 | 1016.8 |
| 20260506101350 | 64 | 160 | 0.0 | 0.9 | 0.00 | 0.00 | 0.00 | 70 | 1016.9 |
| 20260506100346 | 64 | 239 | 0.9 | 2.6 | 0.00 | 0.00 | 0.00 | 69 | 1016.7 |
| 20260506095341 | 64 | 57 | 0.9 | 2.6 | 0.00 | 0.00 | 0.00 | 69 | 1016.7 |
| 20260506094337 | 64 | 95 | 0.9 | 3.5 | 0.00 | 0.00 | 0.00 | 68 | 1016.9 |
| 20260506093337 | 64 | 211 | 0.9 | 1.7 | 0.00 | 0.00 | 0.00 | 67 | 1017.0 |
| 20260506092333 | 64 | 77 | 0.0 | 0.0 | 0.00 | 0.00 | 0.00 | 66 | 1016.6 |
| 20260506091333 | 65 | 146 | 0.9 | 1.7 | 0.00 | 0.00 | 0.00 | 66 | 1016.7 |
| 20260506090333 | 65 | 246 | 0.9 | 2.6 | 0.00 | 0.00 | 0.00 | 65 | 1016.5 |
| 20260506085332 | 64 | 53 | 0.0 | 0.0 | 0.00 | 0.00 | 0.00 | 64 | 1016.7 |
| 20260506084332 | 65 | 32 | 0.9 | 0.9 | 0.00 | 0.00 | 0.00 | 63 | 1016.7 |
| 20260506083326 | 66 | 53 | 0.9 | 0.9 | 0.00 | 0.00 | 0.00 | 61 | 1016.6 |
| 20260506082325 | 66 | 94 | 0.0 | 0.0 | 0.00 | 0.00 | 0.00 | 60 | 1016.8 |
| 20260506081320 | 67 | 46 | 0.0 | 0.0 | 0.00 | 0.00 | 0.00 | 58 | 1016.9 |
| 20260506080319 | 67 | 219 | 3.5 | 6.1 | 0.00 | 0.00 | 0.00 | 58 | 1016.8 |
| 20260506073309 | 68 | 96 | 0.0 | 1.7 | 0.00 | 0.00 | 0.00 | 56 | 1016.9 |
| 20260506072309 | 67 | 252 | 1.7 | 2.6 | 0.00 | 0.00 | 0.00 | 57 | 1017.0 |
| 20260506071305 | 68 | 202 | 1.7 | 5.2 | 0.00 | 0.00 | 0.00 | 56 | 1017.0 |
| 20260506070304 | 68 | 240 | 0.9 | 3.5 | 0.00 | 0.00 | 0.00 | 55 | 1017.2 |
| 20260506062247 | 69 | 65 | 2.6 | 3.5 | 0.00 | 0.00 | 0.00 | 53 | 1017.4 |
| 20260506061246 | 68 | 217 | 1.7 | 2.6 | 0.00 | 0.00 | 0.00 | 54 | 1017.3 |
| 20260506060242 | 68 | 268 | 0.9 | 1.7 | 0.00 | 0.00 | 0.00 | 55 | 1017.2 |
| 20260506051231 | 69 | 61 | 0.0 | 1.7 | 0.00 | 0.00 | 0.00 | 52 | 1017.7 |
| 20260506050226 | 69 | 77 | 0.9 | 2.6 | 0.00 | 0.00 | 0.00 | 51 | 1017.8 |
| 20260506044220 | 70 | 63 | 0.0 | 5.2 | 0.00 | 0.00 | 0.00 | 50 | 1017.8 |
| 20260506043215 | 70 | 89 | 0.0 | 0.9 | 0.00 | 0.00 | 0.00 | 48 | 1017.8 |
| 20260506042212 | 70 | 90 | 0.9 | 1.7 | 0.00 | 0.00 | 0.00 | 48 | 1017.9 |
| 20260506041207 | 71 | 85 | 0.0 | 0.9 | 0.00 | 0.00 | 0.00 | 46 | 1017.5 |
| 20260506040207 | 71 | 93 | 1.7 | 2.6 | 0.00 | 0.00 | 0.00 | 46 | 1017.5 |
| 20260506035206 | 71 | 69 | 0.9 | 2.6 | 0.00 | 0.04 | 0.04 | 45 | 1017.6 |
| 20260506034206 | 71 | 59 | 0.0 | 1.7 | 0.00 | 0.04 | 0.04 | 45 | 1017.5 |
| 20260506033206 | 71 | 136 | 0.9 | 2.6 | 0.00 | 0.04 | 0.04 | 45 | 1017.3 |
| 20260506032206 | 72 | 95 | 0.9 | 3.5 | 0.00 | 0.04 | 0.04 | 44 | 1017.4 |
| 20260506031205 | 72 | 66 | 0.9 | 3.5 | 0.00 | 0.04 | 0.04 | 43 | 1017.3 |
| 20260506030201 | 72 | 78 | 0.0 | 2.6 | 0.00 | 0.04 | 0.04 | 43 | 1017.4 |
| 20260506025159 | 73 | 62 | 0.9 | 1.7 | 0.00 | 0.04 | 0.04 | 42 | 1017.5 |
| 20260506024159 | 73 | 49 | 1.7 | 5.2 | 0.00 | 0.04 | 0.04 | 41 | 1017.4 |
| 20260506023159 | 73 | 158 | 0.0 | 5.2 | 0.00 | 0.04 | 0.04 | 41 | 1017.2 |
| 20260506022159 | 74 | 174 | 1.7 | 5.2 | 0.00 | 0.04 | 0.04 | 40 | 1017.3 |
| 20260506021159 | 74 | 180 | 1.7 | 3.5 | 0.00 | 0.04 | 0.04 | 39 | 1017.1 |
| 20260506020154 | 74 | 67 | 0.0 | 2.6 | 0.00 | 0.04 | 0.04 | 38 | 1017.0 |
| 20260506015149 | 74 | 65 | 0.9 | 1.7 | 0.00 | 0.04 | 0.04 | 37 | 1017.0 |
| 20260506014147 | 74 | 124 | 0.0 | 0.9 | 0.00 | 0.04 | 0.04 | 38 | 1016.9 |
| 20260506013142 | 74 | 147 | 0.9 | 6.1 | 0.00 | 0.04 | 0.04 | 39 | 1017.0 |
| 20260506012141 | 74 | 98 | 0.0 | 2.6 | 0.00 | 0.04 | 0.04 | 37 | 1016.9 |
| 20260506011140 | 74 | 85 | 1.7 | 2.6 | 0.00 | 0.04 | 0.04 | 37 | 1016.7 |
| 20260506010136 | 74 | 104 | 0.9 | 2.6 | 0.00 | 0.04 | 0.04 | 37 | 1016.5 |
| 20260506005136 | 74 | 92 | 0.9 | 2.6 | 0.00 | 0.04 | 0.04 | 38 | 1016.5 |
| 20260506004135 | 75 | 100 | 0.9 | 5.2 | 0.00 | 0.04 | 0.04 | 37 | 1016.4 |
| 20260506003133 | 75 | 284 | 1.7 | 2.6 | 0.00 | 0.04 | 0.04 | 35 | 1016.4 |
| 20260506002131 | 75 | 121 | 0.9 | 5.2 | 0.00 | 0.04 | 0.04 | 36 | 1016.3 |
| 20260506001130 | 76 | 7 | 2.6 | 3.5 | 0.00 | 0.04 | 0.04 | 35 | 1016.2 |
| 20260506000125 | 76 | 200 | 1.7 | 7.8 | 0.00 | 0.04 | 0.04 | 35 | 1016.1 |
| 20260505235120 | 76 | 9 | 1.7 | 5.2 | 0.00 | 0.04 | 0.04 | 35 | 1016.2 |
| 20260505234119 | 77 | 137 | 1.7 | 3.5 | 0.00 | 0.04 | 0.04 | 35 | 1016.1 |
| 20260505233114 | 77 | 131 | 2.6 | 5.2 | 0.00 | 0.04 | 0.04 | 33 | 1015.9 |
| 20260505232114 | 77 | 257 | 2.6 | 6.1 | 0.00 | 0.04 | 0.04 | 33 | 1015.8 |
| 20260505231110 | 77 | 190 | 1.7 | 8.7 | 0.00 | 0.04 | 0.04 | 33 | 1015.6 |
| 20260505230109 | 78 | 249 | 1.7 | 6.1 | 0.00 | 0.04 | 0.04 | 33 | 1015.6 |
| 20260505225108 | 78 | 268 | 7.8 | 13.0 | 0.00 | 0.04 | 0.04 | 32 | 1015.5 |
| 20260505224107 | 78 | 211 | 5.2 | 7.8 | 0.00 | 0.04 | 0.04 | 31 | 1015.3 |
| 20260505223106 | 79 | 262 | 3.5 | 8.7 | 0.00 | 0.04 | 0.04 | 32 | 1015.2 |
| 20260505222105 | 79 | 84 | 0.0 | 3.5 | 0.00 | 0.04 | 0.04 | 31 | 1015.0 |
| 20260505221104 | 80 | 161 | 6.1 | 7.8 | 0.00 | 0.04 | 0.04 | 30 | 1015.0 |
| 20260505220100 | 80 | 86 | 2.6 | 7.8 | 0.00 | 0.04 | 0.04 | 29 | 1015.1 |
| 20260505215055 | 81 | 212 | 9.6 | 13.0 | 0.00 | 0.04 | 0.04 | 28 | 1014.8 |
| 20260505214055 | 80 | 274 | 1.7 | 6.1 | 0.00 | 0.04 | 0.04 | 30 | 1014.7 |
| 20260505213055 | 80 | 252 | 3.5 | 14.8 | 0.00 | 0.04 | 0.04 | 29 | 1014.7 |
| 20260505212055 | 80 | 224 | 1.7 | 7.8 | 0.00 | 0.04 | 0.04 | 31 | 1014.7 |
| 20260505211055 | 80 | 154 | 6.1 | 8.7 | 0.00 | 0.04 | 0.04 | 29 | 1014.6 |
| 20260505210054 | 81 | 246 | 3.5 | 13.0 | 0.00 | 0.04 | 0.04 | 30 | 1014.6 |
| 20260505205049 | 82 | 84 | 1.7 | 7.8 | 0.00 | 0.04 | 0.04 | 30 | 1014.3 |
| 20260505204044 | 82 | 211 | 5.2 | 12.2 | 0.00 | 0.04 | 0.04 | 29 | 1014.5 |
| 20260505203043 | 83 | 266 | 4.3 | 13.0 | 0.00 | 0.04 | 0.04 | 29 | 1014.3 |
| 20260505202040 | 84 | 223 | 5.2 | 7.8 | 0.00 | 0.04 | 0.04 | 29 | 1014.3 |
| 20260505201036 | 84 | 269 | 5.2 | 8.7 | 0.00 | 0.04 | 0.04 | 28 | 1014.9 |
| 20260505200036 | 82 | 245 | 4.3 | 11.3 | 0.00 | 0.04 | 0.04 | 29 | 1014.9 |
| 20260505195035 | 83 | 216 | 3.5 | 13.0 | 0.00 | 0.04 | 0.04 | 29 | 1015.1 |
| 20260505194033 | 82 | 239 | 2.6 | 7.0 | 0.00 | 0.04 | 0.04 | 31 | 1015.0 |
| 20260505193028 | 82 | 267 | 5.2 | 9.6 | 0.00 | 0.04 | 0.04 | 31 | 1015.2 |
| 20260505192024 | 82 | 210 | 4.3 | 16.5 | 0.00 | 0.04 | 0.04 | 30 | 1015.5 |
| 20260505191020 | 83 | 253 | 3.5 | 7.8 | 0.00 | 0.04 | 0.04 | 32 | 1015.3 |
| 20260505190016 | 82 | 241 | 3.5 | 8.7 | 0.00 | 0.04 | 0.04 | 32 | 1015.4 |
| 20260505185015 | 82 | 305 | 3.5 | 6.1 | 0.00 | 0.04 | 0.04 | 31 | 1015.6 |
| 20260505184015 | 82 | 303 | 4.3 | 9.6 | 0.00 | 0.04 | 0.04 | 32 | 1015.7 |
| 20260505183015 | 81 | 258 | 7.8 | 12.2 | 0.00 | 0.04 | 0.04 | 31 | 1016.0 |
| 20260505182014 | 82 | 238 | 4.3 | 15.6 | 0.00 | 0.04 | 0.04 | 33 | 1016.1 |
| 20260505181014 | 82 | 289 | 5.2 | 11.3 | 0.00 | 0.04 | 0.04 | 33 | 1016.2 |
| 20260505180014 | 81 | 257 | 7.0 | 13.0 | 0.00 | 0.04 | 0.04 | 35 | 1016.2 |
| 20260505175012 | 81 | 103 | 3.5 | 7.0 | 0.00 | 0.04 | 0.04 | 36 | 1016.3 |
| 20260505174010 | 81 | 353 | 7.0 | 9.6 | 0.00 | 0.04 | 0.04 | 36 | 1016.3 |
| 20260505173009 | 81 | 264 | 8.7 | 12.2 | 0.00 | 0.04 | 0.04 | 35 | 1016.4 |
| 20260505172008 | 80 | 342 | 4.3 | 7.0 | 0.00 | 0.04 | 0.04 | 37 | 1016.6 |
| 20260505171007 | 79 | 249 | 2.6 | 11.3 | 0.00 | 0.04 | 0.04 | 37 | 1016.5 |
| 20260505170006 | 79 | 186 | 7.0 | 9.6 | 0.00 | 0.04 | 0.04 | 39 | 1016.8 |
| 20260505165003 | 79 | 196 | 1.7 | 5.2 | 0.00 | 0.04 | 0.04 | 41 | 1016.8 |
| 20260505164004 | 79 | 224 | 5.2 | 7.0 | 0.00 | 0.04 | 0.04 | 39 | 1016.9 |
| 20260505163001 | 78 | 318 | 3.5 | 5.2 | 0.00 | 0.04 | 0.04 | 39 | 1017.2 |
| 20260505161959 | 78 | 214 | 3.5 | 6.1 | 0.00 | 0.04 | 0.04 | 40 | 1017.3 |
| 20260505160959 | 78 | 243 | 1.7 | 6.1 | 0.00 | 0.04 | 0.04 | 42 | 1017.5 |
| 20260505152957 | 75 | 239 | 4.3 | 9.6 | 0.00 | 0.04 | 0.04 | 45 | 1018.2 |
| 20260505151955 | 75 | 235 | 1.7 | 6.1 | 0.00 | 0.04 | 0.04 | 51 | 1018.0 |